Latest Weather Observations for Middle Percy Island

IDQ60801

Issued at 2:35 pm EST Thursday 24 April 2014 (issued every 30 minutes, with the page automatically refreshed every 10 minutes)

About weather observations | Map of weather stations | Latest weather observations for QLD | Other Formats
Station Details ID: 200001 Name: MIDDLE PERCY ISLAND Lat: -21.66 Lon: 150.27 Height: 208.7 m
Data from the previous 72 hours. | See also: Recent months at Middle Percy Island
Date/Time
EST
Temp
°C
App
Temp
°C
Dew
Point
Rel
Hum
%
Delta-T
°C
Wind Press
QNH
hPa
Press
MSL
hPa
Rain
since 9 am
mm
Dir
 
Spd
km/h
Gust
km/h
Spd
kts
Gust
kts
24/02:30pm 21.4 23.0 21.4 100 0.0 S 15 20 8 11 1014.1 - 23.4
24/02:00pm 21.1 22.9 21.1 100 0.0 SSE 13 17 7 9 1014.2 1013.2 21.8
24/01:30pm 21.5 22.4 21.5 100 0.0 S 19 24 10 13 1014.1 - 15.4
24/01:00pm 21.6 22.4 21.3 98 0.2 SW 19 26 10 14 1014.6 1013.6 2.8
24/12:30pm 23.1 27.0 21.9 93 0.8 NW 4 6 2 3 1014.7 - 0.4
24/12:00pm 23.4 26.7 21.5 89 1.3 N 6 7 3 4 1015.0 1014.0 0.0
24/11:30am 23.3 27.2 21.9 92 0.9 NE 4 7 2 4 1015.2 - 0.0
24/11:00am 23.4 25.9 21.7 90 1.1 ENE 11 17 6 9 1015.8 1014.7 0.0
24/10:30am 24.2 26.6 22.3 89 1.3 NE 13 19 7 10 1016.2 - 0.0
24/10:00am 23.1 24.4 21.7 92 0.9 ENE 17 22 9 12 1016.5 1015.4 0.0
24/09:30am 22.4 24.8 21.6 95 0.5 ENE 11 20 6 11 1016.6 - 0.0
24/09:00am 22.1 24.3 21.8 98 0.2 E 13 22 7 12 1016.1 1015.0 79.6
24/08:30am 21.9 24.8 21.7 99 0.1 E 9 17 5 9 1016.8 - 79.6
24/08:00am 21.6 24.0 21.6 100 0.0 ESE 11 20 6 11 1016.2 1015.1 79.4
24/07:30am 21.4 23.7 21.4 100 0.0 SE 11 22 6 12 1016.3 - 79.4
24/07:00am 20.8 21.0 20.6 99 0.1 ENE 20 32 11 17 1015.6 1014.5 79.2
24/06:30am 20.7 21.9 20.7 100 0.0 ESE 15 22 8 12 1015.5 - 78.8
24/06:00am 20.9 21.8 20.9 100 0.0 SE 17 22 9 12 1015.6 1014.5 78.8
24/05:30am 20.7 22.3 20.7 100 0.0 ESE 13 19 7 10 1015.4 - 77.2
24/05:00am 21.1 23.3 21.1 100 0.0 ESE 11 17 6 9 1015.7 1014.6 74.8
24/04:30am 21.1 22.9 21.1 100 0.0 ESE 13 20 7 11 1015.0 - 73.8
24/04:00am 21.0 22.4 21.0 100 0.0 ESE 15 26 8 14 1014.9 1013.9 72.4
24/03:30am 21.1 20.8 21.1 100 0.0 SE 24 32 13 17 1014.9 - 71.4
24/03:00am 21.3 22.4 21.3 100 0.0 SE 17 26 9 14 1014.7 1013.7 71.0
24/02:30am 20.9 22.6 20.9 100 0.0 ESE 13 20 7 11 1014.9 - 70.4
24/02:00am 20.7 23.0 20.7 100 0.0 ESE 9 15 5 8 1015.6 1014.5 69.8
24/01:30am 21.0 22.7 21.0 100 0.0 ESE 13 22 7 12 1015.6 - 69.6
24/01:00am 21.2 23.8 21.2 100 0.0 ENE 9 19 5 10 1016.0 1014.9 67.4
24/12:30am 21.2 23.8 21.2 100 0.0 S 9 17 5 9 1016.5 - 64.6
24/12:00am 21.4 23.3 21.4 100 0.0 ESE 13 20 7 11 1017.1 1016.0 62.4
 
Date/Time
EST
Temp
°C
App
Temp
°C
Dew
Point
Rel
Hum
%
Delta-T
°C
Wind Press
QNH
hPa
Press
MSL
hPa
Rain
since 9 am
mm
Dir
 
Spd
km/h
Gust
km/h
Spd
kts
Gust
kts
23/11:30pm 21.2 22.9 21.0 99 0.1 E 13 19 7 10 1017.2 - 53.8
23/11:00pm 21.4 23.2 21.2 99 0.1 ENE 13 30 7 16 1017.1 1016.0 41.2
23/10:30pm 21.9 23.6 21.6 98 0.2 ENE 15 20 8 11 1017.2 - 29.0
23/10:00pm 22.0 24.5 21.8 99 0.1 E 11 20 6 11 1017.3 1016.3 28.8
23/09:30pm 21.6 24.0 21.6 100 0.0 E 11 22 6 12 1017.3 - 28.8
23/09:00pm 21.8 24.0 21.8 100 0.0 ESE 13 22 7 12 1017.4 1016.4 28.2
23/08:30pm 21.7 23.0 21.7 100 0.0 ESE 17 32 9 17 1017.2 - 27.2
23/08:00pm 21.7 22.1 21.7 100 0.0 SE 22 35 12 19 1016.9 1015.8 26.6
23/07:30pm 21.5 21.8 21.5 100 0.0 SE 22 32 12 17 1016.8 - 26.0
23/07:00pm 21.4 20.1 21.4 100 0.0 SE 30 41 16 22 1016.1 1015.0 25.6
23/06:30pm 21.5 21.4 21.5 100 0.0 SE 24 33 13 18 1016.1 - 24.6
23/06:00pm 21.5 21.0 21.5 100 0.0 ESE 26 35 14 19 1015.8 1014.7 24.4
23/05:30pm 21.3 21.5 21.3 100 0.0 SE 22 35 12 19 1015.7 - 23.6
23/05:00pm 21.4 20.5 21.4 100 0.0 ESE 28 37 15 20 1015.4 1014.3 22.6
23/04:30pm 21.2 20.2 21.2 100 0.0 ESE 28 35 15 19 1015.2 - 20.2
23/04:00pm 21.0 20.2 20.8 99 0.1 SE 26 32 14 17 1015.9 1014.8 10.8
23/03:30pm 21.6 21.8 21.4 99 0.1 S 22 30 12 16 1015.4 - 5.0
23/03:00pm 21.8 22.5 21.5 98 0.2 S 20 30 11 16 1015.1 1014.1 2.8
23/02:30pm 22.1 22.7 21.3 95 0.5 SSE 20 26 11 14 1015.1 - 2.0
23/02:00pm 22.7 23.7 21.7 94 0.7 SE 19 28 10 15 1015.0 1014.0 1.0
23/01:30pm 23.2 23.8 21.3 89 1.3 ESE 20 28 11 15 1015.0 - 0.0
23/01:00pm 23.5 24.3 21.4 88 1.4 ESE 19 30 10 16 1015.5 1014.4 0.0
23/12:30pm 24.6 24.7 21.1 81 2.3 ESE 22 33 12 18 1015.6 - 0.0
23/12:00pm 24.3 24.8 20.8 81 2.3 SE 19 32 10 17 1016.2 1015.1 0.0
23/11:30am 24.7 24.7 21.6 83 2.1 ESE 24 32 13 17 1016.9 - 0.0
23/11:00am 24.5 24.8 20.8 80 2.4 SE 20 30 11 16 1017.2 1016.2 0.0
23/10:30am 24.9 24.9 21.0 79 2.6 SE 22 32 12 17 1017.3 - 0.0
23/10:00am 25.2 25.5 21.5 80 2.5 ESE 22 32 12 17 1017.5 1016.5 0.0
23/09:30am 24.0 24.9 21.9 88 1.4 SE 20 28 11 15 1017.6 - 0.0
23/09:00am 23.4 25.2 21.8 91 1.1 ESE 15 22 8 12 1017.4 1016.4 0.0
23/08:30am 22.9 24.5 21.4 91 1.0 ESE 15 24 8 13 1017.5 - 0.0
23/08:00am 22.9 24.6 21.7 93 0.8 ESE 15 22 8 12 1017.6 1016.6 0.0
23/07:30am 22.3 24.6 21.3 94 0.7 E 11 20 6 11 1017.6 - 0.0
23/07:00am 22.1 24.0 21.4 96 0.5 E 13 24 7 13 1017.4 1016.4 0.0
23/06:30am 21.6 23.8 21.1 97 0.3 ESE 11 20 6 11 1017.4 - 0.0
23/06:00am 21.8 23.6 21.1 96 0.5 E 13 28 7 15 1017.2 1016.2 0.0
23/05:30am 23.2 22.7 20.7 86 1.6 SE 24 35 13 19 1017.0 - 0.0
23/05:00am 23.0 23.2 20.1 84 1.9 SE 19 26 10 14 1016.9 1015.8 0.0
23/04:30am 22.8 24.0 20.7 88 1.4 SE 15 22 8 12 1016.8 - 0.0
23/04:00am 22.7 23.3 20.2 86 1.6 SE 17 24 9 13 1016.8 1015.7 0.0
23/03:30am 22.3 22.6 20.4 89 1.2 ESE 19 24 10 13 1016.6 - 0.0
23/03:00am 22.4 22.6 20.5 89 1.2 ESE 20 28 11 15 1016.8 1015.7 0.0
23/02:30am 23.0 22.3 19.4 80 2.3 ESE 22 35 12 19 1016.8 - 0.0
23/02:00am 23.0 23.1 20.3 85 1.8 ESE 20 35 11 19 1017.0 1015.9 0.0
23/01:30am 23.5 21.8 19.0 76 2.9 ESE 26 33 14 18 1017.3 - 0.0
23/01:00am 23.4 21.8 19.1 77 2.8 SE 26 35 14 19 1017.5 1016.5 0.0
23/12:30am 23.4 22.4 18.9 76 2.9 SE 22 33 12 18 1017.9 - 0.0
23/12:00am 23.4 23.0 18.9 76 2.9 SE 19 26 10 14 1018.2 1017.2 0.0
 
Date/Time
EST
Temp
°C
App
Temp
°C
Dew
Point
Rel
Hum
%
Delta-T
°C
Wind Press
QNH
hPa
Press
MSL
hPa
Rain
since 9 am
mm
Dir
 
Spd
km/h
Gust
km/h
Spd
kts
Gust
kts
22/11:30pm 23.4 22.9 19.1 77 2.8 ESE 20 26 11 14 1018.5 - 0.0
22/11:00pm 23.1 22.7 18.8 77 2.7 ESE 19 24 10 13 1018.3 1017.3 0.0
22/10:30pm 23.2 22.1 19.4 79 2.4 SE 24 32 13 17 1018.8 - 0.0
22/10:00pm 23.4 22.5 19.1 77 2.8 SE 22 33 12 18 1018.9 1017.9 0.0
22/09:30pm 23.3 22.9 18.8 76 2.9 SE 19 24 10 13 1019.1 - 0.0
22/09:00pm 23.0 22.8 18.5 76 2.9 SE 17 24 9 13 1019.1 1018.1 0.0
22/08:30pm 23.2 22.8 18.9 77 2.7 SE 19 26 10 14 1019.1 - 0.0
22/08:00pm 23.2 22.8 18.9 77 2.7 SE 19 26 10 14 1019.0 1018.0 0.0
22/07:30pm 23.2 23.0 18.5 75 3.0 SE 17 24 9 13 1018.5 - 0.0
22/07:00pm 23.2 23.1 18.7 76 2.9 SE 17 26 9 14 1018.5 1017.5 0.0
22/06:30pm 23.2 22.3 18.1 73 3.2 SE 20 33 11 18 1017.9 - 0.0
22/06:00pm 23.3 22.6 18.2 73 3.2 ESE 19 30 10 16 1017.7 1016.7 0.0
22/05:30pm 23.3 23.3 18.0 72 3.3 ESE 15 26 8 14 1017.6 - 0.0
22/05:00pm 23.5 24.0 18.4 73 3.2 ESE 13 22 7 12 1017.7 1016.7 0.0
22/04:30pm 23.7 23.1 18.4 72 3.4 ESE 19 24 10 13 1017.5 - 0.0
22/04:00pm 23.7 22.6 17.2 67 4.0 SE 19 28 10 15 1017.7 1016.7 0.0
22/03:30pm 24.0 23.5 17.7 68 4.0 ESE 17 24 9 13 1017.6 - 0.0
22/03:00pm 24.3 23.5 18.0 68 4.0 ESE 19 28 10 15 1017.6 1016.6 0.0
22/02:30pm 24.6 25.2 18.5 69 3.9 ESE 13 20 7 11 1017.7 - 0.0
22/02:00pm 24.1 23.4 18.3 70 3.7 SE 19 28 10 15 1017.7 1016.7 0.0
22/01:30pm 24.5 23.9 18.4 69 3.9 SE 19 28 10 15 1017.9 - 0.0
22/01:00pm 25.1 23.8 18.1 65 4.4 SE 22 28 12 15 1018.1 1017.1 0.0
22/12:30pm 25.5 24.7 17.9 63 4.8 ESE 19 30 10 16 1018.5 - 0.0
22/12:00pm 26.1 26.3 18.5 63 4.9 E 15 26 8 14 1018.8 1017.8 0.0
22/11:30am 26.2 26.8 18.6 63 4.9 ESE 13 26 7 14 1019.1 - 0.0
22/11:00am 25.8 25.4 18.0 62 4.9 ENE 17 26 9 14 1019.5 1018.5 0.0
22/10:30am 25.2 24.3 16.9 60 5.2 SE 17 28 9 15 1019.9 - 0.0
22/10:00am 25.1 23.9 17.1 61 5.0 SE 19 28 10 15 1020.2 1019.2 0.0
22/09:30am 24.9 23.8 17.4 63 4.7 ESE 19 28 10 15 1020.5 - 0.0
22/09:00am 24.4 23.2 17.1 63 4.5 SE 19 26 10 14 1020.4 1019.3 0.0
22/08:30am 24.4 25.1 17.9 67 4.1 E 11 19 6 10 1020.5 - 0.0
22/08:00am 23.7 23.4 17.4 68 3.9 E 15 24 8 13 1020.0 1019.0 0.0
22/07:30am 23.2 23.2 17.2 69 3.7 ENE 13 24 7 13 1019.7 - 0.0
22/07:00am 23.2 23.9 17.9 72 3.3 ENE 11 20 6 11 1019.4 1018.4 0.0
22/06:30am 22.0 23.8 18.8 82 2.0 E 7 13 4 7 1019.3 - 0.0
22/06:00am 21.5 22.2 18.9 85 1.6 ESE 13 22 7 12 1019.1 1018.1 0.0
22/05:30am 22.3 21.5 18.5 79 2.4 SE 20 28 11 15 1018.9 - 0.0
22/05:00am 22.4 21.6 18.4 78 2.5 SE 20 32 11 17 1018.6 1017.6 0.0
22/04:30am 22.1 20.6 17.7 76 2.7 SE 22 32 12 17 1018.5 - 0.0
22/04:00am 22.4 20.6 17.8 75 2.9 SE 24 35 13 19 1018.6 1017.6 0.0
22/03:30am 22.5 20.9 17.4 73 3.2 SSE 22 33 12 18 1018.5 - 0.0
22/03:00am 22.5 20.6 16.8 70 3.5 SE 22 33 12 18 1018.5 1017.5 0.0
22/02:30am 22.4 20.1 16.7 70 3.5 SE 24 35 13 19 1018.7 - 0.0
22/02:00am 22.5 20.1 16.5 69 3.7 SE 24 32 13 17 1018.8 1017.8 0.0
22/01:30am 22.5 20.6 16.8 70 3.5 SE 22 33 12 18 1019.0 - 0.0
22/01:00am 22.4 20.5 16.7 70 3.5 SE 22 33 12 18 1019.4 1018.4 0.0
22/12:30am 22.4 20.6 16.9 71 3.4 SE 22 30 12 16 1019.7 - 0.0
22/12:00am 22.4 20.8 16.4 69 3.7 SE 20 28 11 15 1019.9 1018.9 0.0
 
Date/Time
EST
Temp
°C
App
Temp
°C
Dew
Point
Rel
Hum
%
Delta-T
°C
Wind Press
QNH
hPa
Press
MSL
hPa
Rain
since 9 am
mm
Dir
 
Spd
km/h
Gust
km/h
Spd
kts
Gust
kts
21/11:30pm 22.4 21.1 15.7 66 4.1 SE 17 26 9 14 1020.1 - 0.0
21/11:00pm 22.7 21.1 16.0 66 4.1 SE 19 28 10 15 1020.2 1019.2 0.0
21/10:30pm 22.7 20.9 15.5 64 4.4 SE 19 28 10 15 1020.4 - 0.0
21/10:00pm 22.7 20.9 16.0 66 4.1 SE 20 32 11 17 1020.5 1019.4 0.0
21/09:30pm 22.7 20.3 15.5 64 4.4 SE 22 30 12 16 1020.5 - 0.0
21/09:00pm 22.8 21.0 16.1 66 4.1 SE 20 30 11 16 1020.7 1019.6 0.0
21/08:30pm 22.7 20.5 16.0 66 4.1 SE 22 32 12 17 1020.6 - 0.0
21/08:00pm 22.7 20.7 16.5 68 3.8 SE 22 32 12 17 1020.4 1019.3 0.0
21/07:30pm 22.9 20.6 16.7 68 3.8 SE 24 35 13 19 1020.0 - 0.0
21/07:00pm 22.9 21.1 16.9 69 3.7 SE 22 35 12 19 1019.6 1018.6 0.0
21/06:30pm 23.0 20.9 17.2 70 3.6 SE 24 37 13 20 1019.4 - 0.0
21/06:00pm 23.0 21.0 17.5 71 3.4 SE 24 35 13 19 1019.1 1018.1 0.0
21/05:30pm 23.2 20.8 17.4 70 3.6 SE 26 39 14 21 1019.0 - 0.0
21/05:00pm 23.6 21.7 17.6 69 3.8 SE 24 33 13 18 1018.7 1017.7 0.0
21/04:30pm 23.3 21.3 17.3 69 3.7 SE 24 32 13 17 1018.5 - 0.0
21/04:00pm 23.5 21.8 17.3 68 3.9 SE 22 32 12 17 1018.2 1017.2 0.0
21/03:30pm 24.4 22.5 17.6 66 4.3 SE 24 33 13 18 1018.0 - 0.0
21/03:00pm 24.9 23.3 16.6 60 5.1 SE 20 35 11 19 1017.9 1016.9 0.0

Other Formats:

Comma delimited format used in spreadsheet applications
http://www.bom.gov.au/fwo/IDQ60801/IDQ60801.94372.axf

JavaScript Object Notation format (JSON) in row-major order
http://www.bom.gov.au/fwo/IDQ60801/IDQ60801.94372.json